Warning: Javascript must be enabled to use all the features on this page!


Page Loading - Please Wait...

Click to hideNews Bulletins

Peak Streamflow for the Nation

USGS 12090400 NORTH FORK CLOVER CREEK NEAR PARKLAND, WA

Pierce County, Washington
Hydrologic Unit Code 17110019
Latitude  47°08'05", Longitude 122°24'50" NAD27
Drainage area 6.25  square miles
Gage datum 315 feet above NGVD29
Output formats
Table
Graph
Tab-separated file
peakfq (watstore) format
Reselect output format
Water
Year
Date Gage
Height
(feet)
Stream-
flow
(cfs)
1960 1959-12-16 14.78 153
1961 1960-11-24 12.93 174
1962 1962-03-05 11.16 76.0
1963 1962-11-25 12.84 161
1964 1964-01-25 12.48 143
1965 1964-11-22 13.05 152
1966 1966-01-05 12.00 130
1967 1967-01-19 13.75 152
1968 1968-02-19 12.09 133
1969 1968-11-11 13.05 175
1970 1970-01-19 12.58 106
1971 1971-01-26   174
1972 1972-02-28   190
1973 1972-12-26 12.18 139
1974 1974-01-16 12.13 136
1975 1975-01-13 13.61 140
1991 1991-04-05 9.37 474
1992 1992-04-17 8.04 151
1995 1995-02-19 10.05 371
1996 1996-02-08 12.813  
1997 1996-12-29 9.18 353
1998 1997-12-16 7.94 207
1999 1998-12-27 10.08 4746
2000 1999-12-15 8.32 2026
2001 2000-11-26 7.01 1076
2002 2001-11-14 7.90 1976
2003 2003-01-31 7.11 1186
2004 2004-01-29 6.93 1036
2005 2005-01-18 7.53 1176
2006 2006-01-10 8.06 1696
2007 2007-01-07 7.81 1586
2008 2007-12-03 7.99 1786
2009 2009-01-07 9.661  
2010 2010-01-08 7.39 1176
2011 2011-05-15 7.66 1446
2012 2012-01-21 7.68 1466
2013 2012-11-19   1296
2014 2014-02-17 8.25 2066
2015 2014-11-25 7.42 1226
2016 2015-12-09 9.13 3186
2017 2017-02-09 7.89 1446
2018 2017-12-29 7.40 1296
2019 2019-02-12 7.34 1086
2020 2019-12-20 7.61 1476
2021 2021-01-03 7.60 1526
?
  Peak Gage-Height Qualification Codes.
?
  Peak Streamflow Qualification Codes.